sensor_id;sensor_type;location;lat;lon;timestamp;temperature;humidity
54540;SHT30;40438;52.992;18.604;2023-11-19T00:01:00;0.21;87.82
54540;SHT30;40438;52.992;18.604;2023-11-19T00:03:26;0.21;87.84
54540;SHT30;40438;52.992;18.604;2023-11-19T00:05:52;0.13;88.02
54540;SHT30;40438;52.992;18.604;2023-11-19T00:08:18;0.09;88.14
54540;SHT30;40438;52.992;18.604;2023-11-19T00:10:43;0.09;88.27
54540;SHT30;40438;52.992;18.604;2023-11-19T00:13:09;0.09;88.20
54540;SHT30;40438;52.992;18.604;2023-11-19T00:15:36;0.00;88.28
54540;SHT30;40438;52.992;18.604;2023-11-19T00:18:02;-0.09;88.43
54540;SHT30;40438;52.992;18.604;2023-11-19T00:20:28;-0.10;88.50
54540;SHT30;40438;52.992;18.604;2023-11-19T00:22:54;-0.14;88.59
54540;SHT30;40438;52.992;18.604;2023-11-19T00:25:20;-0.20;88.77
54540;SHT30;40438;52.992;18.604;2023-11-19T00:27:46;-0.14;88.61
54540;SHT30;40438;52.992;18.604;2023-11-19T00:30:13;-0.17;88.58
54540;SHT30;40438;52.992;18.604;2023-11-19T00:32:40;-0.21;88.76
54540;SHT30;40438;52.992;18.604;2023-11-19T00:35:07;-0.14;88.86
54540;SHT30;40438;52.992;18.604;2023-11-19T00:37:33;-0.20;88.62
54540;SHT30;40438;52.992;18.604;2023-11-19T00:39:59;-0.24;88.59
54540;SHT30;40438;52.992;18.604;2023-11-19T00:42:24;-0.21;88.67
54540;SHT30;40438;52.992;18.604;2023-11-19T00:44:50;-0.21;88.54
54540;SHT30;40438;52.992;18.604;2023-11-19T00:47:16;-0.21;88.37
54540;SHT30;40438;52.992;18.604;2023-11-19T00:49:44;-0.27;88.45
54540;SHT30;40438;52.992;18.604;2023-11-19T00:52:09;-0.28;88.55
54540;SHT30;40438;52.992;18.604;2023-11-19T00:54:35;-0.27;88.59
54540;SHT30;40438;52.992;18.604;2023-11-19T00:57:01;-0.25;88.44
54540;SHT30;40438;52.992;18.604;2023-11-19T00:59:27;-0.21;88.08
54540;SHT30;40438;52.992;18.604;2023-11-19T01:01:53;-0.24;88.05
54540;SHT30;40438;52.992;18.604;2023-11-19T01:04:18;-0.18;87.82
54540;SHT30;40438;52.992;18.604;2023-11-19T01:06:45;-0.21;87.77
54540;SHT30;40438;52.992;18.604;2023-11-19T01:09:11;-0.27;87.64
54540;SHT30;40438;52.992;18.604;2023-11-19T01:11:37;-0.27;87.66
54540;SHT30;40438;52.992;18.604;2023-11-19T01:14:03;-0.31;87.67
54540;SHT30;40438;52.992;18.604;2023-11-19T01:16:29;-0.28;87.61
54540;SHT30;40438;52.992;18.604;2023-11-19T01:18:54;-0.30;87.38
54540;SHT30;40438;52.992;18.604;2023-11-19T01:21:20;-0.30;87.44
54540;SHT30;40438;52.992;18.604;2023-11-19T01:23:47;-0.35;87.51
54540;SHT30;40438;52.992;18.604;2023-11-19T01:26:13;-0.37;87.57
54540;SHT30;40438;52.992;18.604;2023-11-19T01:28:39;-0.38;87.70
54540;SHT30;40438;52.992;18.604;2023-11-19T01:31:05;-0.37;87.70
54540;SHT30;40438;52.992;18.604;2023-11-19T01:33:31;-0.35;87.67
54540;SHT30;40438;52.992;18.604;2023-11-19T01:35:57;-0.37;87.68
54540;SHT30;40438;52.992;18.604;2023-11-19T01:38:22;-0.34;87.73
54540;SHT30;40438;52.992;18.604;2023-11-19T01:40:50;-0.37;87.78
54540;SHT30;40438;52.992;18.604;2023-11-19T01:43:30;-0.31;87.57
54540;SHT30;40438;52.992;18.604;2023-11-19T01:45:56;-0.34;87.64
54540;SHT30;40438;52.992;18.604;2023-11-19T01:48:22;-0.40;87.83
54540;SHT30;40438;52.992;18.604;2023-11-19T01:50:48;-0.40;87.89
54540;SHT30;40438;52.992;18.604;2023-11-19T01:53:15;-0.37;87.73
54540;SHT30;40438;52.992;18.604;2023-11-19T01:55:41;-0.38;87.59
54540;SHT30;40438;52.992;18.604;2023-11-19T01:58:08;-0.51;87.72
54540;SHT30;40438;52.992;18.604;2023-11-19T02:00:34;-0.48;87.82
54540;SHT30;40438;52.992;18.604;2023-11-19T02:03:00;-0.56;87.89
54540;SHT30;40438;52.992;18.604;2023-11-19T02:05:26;-0.56;87.86
54540;SHT30;40438;52.992;18.604;2023-11-19T02:07:52;-0.66;88.11
54540;SHT30;40438;52.992;18.604;2023-11-19T02:10:18;-0.68;88.12
54540;SHT30;40438;52.992;18.604;2023-11-19T02:12:44;-0.65;88.11
54540;SHT30;40438;52.992;18.604;2023-11-19T02:15:11;-0.66;88.13
54540;SHT30;40438;52.992;18.604;2023-11-19T02:17:37;-0.63;88.10
54540;SHT30;40438;52.992;18.604;2023-11-19T02:20:03;-0.68;87.84
54540;SHT30;40438;52.992;18.604;2023-11-19T02:22:29;-0.68;87.72
54540;SHT30;40438;52.992;18.604;2023-11-19T02:25:01;-0.69;87.60
54540;SHT30;40438;52.992;18.604;2023-11-19T02:27:36;-0.73;87.56
54540;SHT30;40438;52.992;18.604;2023-11-19T02:30:03;-0.68;87.56
54540;SHT30;40438;52.992;18.604;2023-11-19T02:32:29;-0.73;87.44
54540;SHT30;40438;52.992;18.604;2023-11-19T02:34:55;-0.66;87.31
54540;SHT30;40438;52.992;18.604;2023-11-19T02:37:21;-0.66;87.35
54540;SHT30;40438;52.992;18.604;2023-11-19T02:39:47;-0.68;87.20
54540;SHT30;40438;52.992;18.604;2023-11-19T02:42:15;-0.70;87.34
54540;SHT30;40438;52.992;18.604;2023-11-19T02:44:45;-0.69;87.45
54540;SHT30;40438;52.992;18.604;2023-11-19T02:47:10;-0.65;87.57
54540;SHT30;40438;52.992;18.604;2023-11-19T02:49:36;-0.61;87.56
54540;SHT30;40438;52.992;18.604;2023-11-19T02:52:02;-0.56;87.58
54540;SHT30;40438;52.992;18.604;2023-11-19T02:54:28;-0.56;87.58
54540;SHT30;40438;52.992;18.604;2023-11-19T02:56:54;-0.51;87.45
54540;SHT30;40438;52.992;18.604;2023-11-19T02:59:20;-0.53;87.51
54540;SHT30;40438;52.992;18.604;2023-11-19T03:01:47;-0.52;87.65
54540;SHT30;40438;52.992;18.604;2023-11-19T03:04:13;-0.49;87.73
54540;SHT30;40438;52.992;18.604;2023-11-19T03:06:39;-0.44;87.69
54540;SHT30;40438;52.992;18.604;2023-11-19T03:09:05;-0.41;87.65
54540;SHT30;40438;52.992;18.604;2023-11-19T03:11:31;-0.40;87.72
54540;SHT30;40438;52.992;18.604;2023-11-19T03:13:57;-0.35;87.61
54540;SHT30;40438;52.992;18.604;2023-11-19T03:16:22;-0.31;87.71
54540;SHT30;40438;52.992;18.604;2023-11-19T03:18:50;-0.31;87.73
54540;SHT30;40438;52.992;18.604;2023-11-19T03:21:15;-0.25;87.82
54540;SHT30;40438;52.992;18.604;2023-11-19T03:23:41;-0.24;87.73
54540;SHT30;40438;52.992;18.604;2023-11-19T03:26:07;-0.21;87.73
54540;SHT30;40438;52.992;18.604;2023-11-19T03:28:33;-0.17;87.65
54540;SHT30;40438;52.992;18.604;2023-11-19T03:30:58;-0.17;87.68
54540;SHT30;40438;52.992;18.604;2023-11-19T03:33:24;-0.22;87.92
54540;SHT30;40438;52.992;18.604;2023-11-19T03:35:51;-0.22;87.96
54540;SHT30;40438;52.992;18.604;2023-11-19T03:38:17;-0.22;88.19
54540;SHT30;40438;52.992;18.604;2023-11-19T03:40:43;-0.21;88.30
54540;SHT30;40438;52.992;18.604;2023-11-19T03:43:09;-0.24;88.46
54540;SHT30;40438;52.992;18.604;2023-11-19T03:45:34;-0.22;88.60
54540;SHT30;40438;52.992;18.604;2023-11-19T03:48:00;-0.24;88.84
54540;SHT30;40438;52.992;18.604;2023-11-19T03:50:26;-0.20;89.00
54540;SHT30;40438;52.992;18.604;2023-11-19T03:52:53;-0.13;88.94
54540;SHT30;40438;52.992;18.604;2023-11-19T03:55:19;-0.17;89.05
54540;SHT30;40438;52.992;18.604;2023-11-19T03:57:45;-0.17;89.25
54540;SHT30;40438;52.992;18.604;2023-11-19T04:00:11;-0.10;89.30
54540;SHT30;40438;52.992;18.604;2023-11-19T04:02:40;-0.10;89.15
54540;SHT30;40438;52.992;18.604;2023-11-19T04:05:06;-0.04;89.14
54540;SHT30;40438;52.992;18.604;2023-11-19T04:07:32;-0.06;89.21
54540;SHT30;40438;52.992;18.604;2023-11-19T04:10:00;-0.07;89.43
54540;SHT30;40438;52.992;18.604;2023-11-19T04:12:26;-0.07;89.44
54540;SHT30;40438;52.992;18.604;2023-11-19T04:14:51;-0.03;89.40
54540;SHT30;40438;52.992;18.604;2023-11-19T04:17:18;-0.01;89.44
54540;SHT30;40438;52.992;18.604;2023-11-19T04:19:44;0.01;89.49
54540;SHT30;40438;52.992;18.604;2023-11-19T04:22:10;0.00;89.62
54540;SHT30;40438;52.992;18.604;2023-11-19T04:24:35;0.04;89.69
54540;SHT30;40438;52.992;18.604;2023-11-19T04:27:04;0.04;89.73
54540;SHT30;40438;52.992;18.604;2023-11-19T04:29:31;0.06;89.80
54540;SHT30;40438;52.992;18.604;2023-11-19T04:31:56;0.06;89.88
54540;SHT30;40438;52.992;18.604;2023-11-19T04:34:22;0.13;89.60
54540;SHT30;40438;52.992;18.604;2023-11-19T04:36:48;0.19;89.51
54540;SHT30;40438;52.992;18.604;2023-11-19T04:39:14;0.11;89.82
54540;SHT30;40438;52.992;18.604;2023-11-19T04:41:46;0.11;89.83
54540;SHT30;40438;52.992;18.604;2023-11-19T04:44:13;0.13;89.88
54540;SHT30;40438;52.992;18.604;2023-11-19T04:46:39;0.10;89.87
54540;SHT30;40438;52.992;18.604;2023-11-19T04:49:04;0.19;90.02
54540;SHT30;40438;52.992;18.604;2023-11-19T04:51:30;0.16;89.91
54540;SHT30;40438;52.992;18.604;2023-11-19T04:53:56;0.14;90.03
54540;SHT30;40438;52.992;18.604;2023-11-19T04:56:22;0.26;89.86
54540;SHT30;40438;52.992;18.604;2023-11-19T04:58:48;0.27;89.82
54540;SHT30;40438;52.992;18.604;2023-11-19T05:01:15;0.28;89.84
54540;SHT30;40438;52.992;18.604;2023-11-19T05:03:41;0.24;90.00
54540;SHT30;40438;52.992;18.604;2023-11-19T05:06:07;0.27;90.11
54540;SHT30;40438;52.992;18.604;2023-11-19T05:08:33;0.24;90.32
54540;SHT30;40438;52.992;18.604;2023-11-19T05:10:59;0.23;90.41
54540;SHT30;40438;52.992;18.604;2023-11-19T05:13:25;0.27;90.50
54540;SHT30;40438;52.992;18.604;2023-11-19T05:15:50;0.26;90.67
54540;SHT30;40438;52.992;18.604;2023-11-19T05:18:18;0.31;90.65
54540;SHT30;40438;52.992;18.604;2023-11-19T05:20:43;0.31;90.66
54540;SHT30;40438;52.992;18.604;2023-11-19T05:23:09;0.30;90.72
54540;SHT30;40438;52.992;18.604;2023-11-19T05:25:36;0.28;90.85
54540;SHT30;40438;52.992;18.604;2023-11-19T05:28:02;0.41;90.90
54540;SHT30;40438;52.992;18.604;2023-11-19T05:30:28;0.37;90.80
54540;SHT30;40438;52.992;18.604;2023-11-19T05:32:54;0.40;90.83
54540;SHT30;40438;52.992;18.604;2023-11-19T05:35:21;0.37;90.79
54540;SHT30;40438;52.992;18.604;2023-11-19T05:37:47;0.37;91.02
54540;SHT30;40438;52.992;18.604;2023-11-19T05:40:12;0.38;91.02
54540;SHT30;40438;52.992;18.604;2023-11-19T05:42:38;0.42;90.85
54540;SHT30;40438;52.992;18.604;2023-11-19T05:45:04;0.45;90.76
54540;SHT30;40438;52.992;18.604;2023-11-19T05:47:30;0.37;90.85
54540;SHT30;40438;52.992;18.604;2023-11-19T05:49:56;0.36;90.90
54540;SHT30;40438;52.992;18.604;2023-11-19T05:52:23;0.31;90.96
54540;SHT30;40438;52.992;18.604;2023-11-19T05:54:49;0.37;90.91
54540;SHT30;40438;52.992;18.604;2023-11-19T05:57:15;0.38;90.81
54540;SHT30;40438;52.992;18.604;2023-11-19T05:59:40;0.38;90.83
54540;SHT30;40438;52.992;18.604;2023-11-19T06:02:06;0.42;90.83
54540;SHT30;40438;52.992;18.604;2023-11-19T06:04:32;0.36;90.72
54540;SHT30;40438;52.992;18.604;2023-11-19T06:06:58;0.41;90.66
54540;SHT30;40438;52.992;18.604;2023-11-19T06:09:25;0.36;90.82
54540;SHT30;40438;52.992;18.604;2023-11-19T06:11:51;0.40;90.84
54540;SHT30;40438;52.992;18.604;2023-11-19T06:14:17;0.44;90.55
54540;SHT30;40438;52.992;18.604;2023-11-19T06:16:42;0.40;90.63
54540;SHT30;40438;52.992;18.604;2023-11-19T06:19:08;0.42;90.63
54540;SHT30;40438;52.992;18.604;2023-11-19T06:21:34;0.41;90.77
54540;SHT30;40438;52.992;18.604;2023-11-19T06:24:00;0.37;90.87
54540;SHT30;40438;52.992;18.604;2023-11-19T06:26:27;0.37;90.96
54540;SHT30;40438;52.992;18.604;2023-11-19T06:28:53;0.38;90.93
54540;SHT30;40438;52.992;18.604;2023-11-19T06:31:18;0.41;90.97
54540;SHT30;40438;52.992;18.604;2023-11-19T06:33:44;0.40;90.79
54540;SHT30;40438;52.992;18.604;2023-11-19T06:36:14;0.42;90.83
54540;SHT30;40438;52.992;18.604;2023-11-19T06:38:40;0.42;90.76
54540;SHT30;40438;52.992;18.604;2023-11-19T06:41:07;0.42;90.80
54540;SHT30;40438;52.992;18.604;2023-11-19T06:43:35;0.42;90.68
54540;SHT30;40438;52.992;18.604;2023-11-19T06:46:00;0.41;90.82
54540;SHT30;40438;52.992;18.604;2023-11-19T06:48:26;0.44;90.83
54540;SHT30;40438;52.992;18.604;2023-11-19T06:50:52;0.41;90.90
54540;SHT30;40438;52.992;18.604;2023-11-19T06:53:18;0.45;90.90
54540;SHT30;40438;52.992;18.604;2023-11-19T06:55:43;0.49;90.76
54540;SHT30;40438;52.992;18.604;2023-11-19T06:58:09;0.48;90.79
54540;SHT30;40438;52.992;18.604;2023-11-19T07:00:36;0.55;90.60
54540;SHT30;40438;52.992;18.604;2023-11-19T07:03:02;0.55;90.62
54540;SHT30;40438;52.992;18.604;2023-11-19T07:05:28;0.54;90.54
54540;SHT30;40438;52.992;18.604;2023-11-19T07:07:54;0.52;90.66
54540;SHT30;40438;52.992;18.604;2023-11-19T07:10:20;0.61;90.27
54540;SHT30;40438;52.992;18.604;2023-11-19T07:12:45;0.61;90.21
54540;SHT30;40438;52.992;18.604;2023-11-19T07:15:11;0.64;90.16
54540;SHT30;40438;52.992;18.604;2023-11-19T07:17:38;0.58;90.07
54540;SHT30;40438;52.992;18.604;2023-11-19T07:20:05;0.64;89.91
54540;SHT30;40438;52.992;18.604;2023-11-19T07:22:31;0.62;89.94
54540;SHT30;40438;52.992;18.604;2023-11-19T07:24:57;0.59;90.16
54540;SHT30;40438;52.992;18.604;2023-11-19T07:27:23;0.61;89.97
54540;SHT30;40438;52.992;18.604;2023-11-19T07:29:48;0.59;89.83
54540;SHT30;40438;52.992;18.604;2023-11-19T07:32:14;0.61;89.96
54540;SHT30;40438;52.992;18.604;2023-11-19T07:34:41;0.59;90.07
54540;SHT30;40438;52.992;18.604;2023-11-19T07:37:07;0.66;89.55
54540;SHT30;40438;52.992;18.604;2023-11-19T07:39:33;0.76;89.48
54540;SHT30;40438;52.992;18.604;2023-11-19T07:41:59;0.75;89.62
54540;SHT30;40438;52.992;18.604;2023-11-19T07:44:24;0.76;89.83
54540;SHT30;40438;52.992;18.604;2023-11-19T07:46:50;0.86;89.58
54540;SHT30;40438;52.992;18.604;2023-11-19T07:49:16;0.86;89.57
54540;SHT30;40438;52.992;18.604;2023-11-19T07:51:43;0.92;89.35
54540;SHT30;40438;52.992;18.604;2023-11-19T07:54:09;0.99;88.79
54540;SHT30;40438;52.992;18.604;2023-11-19T07:56:35;0.99;88.61
54540;SHT30;40438;52.992;18.604;2023-11-19T07:59:01;0.97;88.93
54540;SHT30;40438;52.992;18.604;2023-11-19T08:01:26;0.92;89.12
54540;SHT30;40438;52.992;18.604;2023-11-19T08:03:52;0.95;89.18
54540;SHT30;40438;52.992;18.604;2023-11-19T08:06:18;0.93;89.30
54540;SHT30;40438;52.992;18.604;2023-11-19T08:08:45;0.93;89.30
54540;SHT30;40438;52.992;18.604;2023-11-19T08:11:11;0.93;89.35
54540;SHT30;40438;52.992;18.604;2023-11-19T08:13:37;0.96;89.39
54540;SHT30;40438;52.992;18.604;2023-11-19T08:16:03;0.97;89.31
54540;SHT30;40438;52.992;18.604;2023-11-19T08:18:29;0.96;89.36
54540;SHT30;40438;52.992;18.604;2023-11-19T08:20:54;1.03;89.30
54540;SHT30;40438;52.992;18.604;2023-11-19T08:23:20;1.07;89.23
54540;SHT30;40438;52.992;18.604;2023-11-19T08:25:47;1.07;89.28
54540;SHT30;40438;52.992;18.604;2023-11-19T08:28:13;1.01;89.30
54540;SHT30;40438;52.992;18.604;2023-11-19T08:30:39;1.06;88.93
54540;SHT30;40438;52.992;18.604;2023-11-19T08:33:05;0.99;89.05
54540;SHT30;40438;52.992;18.604;2023-11-19T08:35:31;1.07;88.92
54540;SHT30;40438;52.992;18.604;2023-11-19T08:37:56;1.03;88.86
54540;SHT30;40438;52.992;18.604;2023-11-19T08:40:22;1.09;89.10
54540;SHT30;40438;52.992;18.604;2023-11-19T08:42:49;1.06;88.93
54540;SHT30;40438;52.992;18.604;2023-11-19T08:45:15;1.09;88.85
54540;SHT30;40438;52.992;18.604;2023-11-19T08:47:41;1.09;89.00
54540;SHT30;40438;52.992;18.604;2023-11-19T08:50:07;1.07;89.03
54540;SHT30;40438;52.992;18.604;2023-11-19T08:52:33;1.07;89.04
54540;SHT30;40438;52.992;18.604;2023-11-19T08:54:58;1.17;88.78
54540;SHT30;40438;52.992;18.604;2023-11-19T08:57:24;1.16;88.40
54540;SHT30;40438;52.992;18.604;2023-11-19T08:59:51;1.17;88.76
54540;SHT30;40438;52.992;18.604;2023-11-19T09:02:17;1.13;88.87
54540;SHT30;40438;52.992;18.604;2023-11-19T09:04:43;1.16;88.85
54540;SHT30;40438;52.992;18.604;2023-11-19T09:07:09;1.15;88.97
54540;SHT30;40438;52.992;18.604;2023-11-19T09:09:35;1.22;88.62
54540;SHT30;40438;52.992;18.604;2023-11-19T09:12:01;1.23;88.18
54540;SHT30;40438;52.992;18.604;2023-11-19T09:14:26;1.26;88.39
54540;SHT30;40438;52.992;18.604;2023-11-19T09:16:54;1.22;88.35
54540;SHT30;40438;52.992;18.604;2023-11-19T09:19:19;1.26;88.15
54540;SHT30;40438;52.992;18.604;2023-11-19T09:21:45;1.24;88.24
54540;SHT30;40438;52.992;18.604;2023-11-19T09:24:11;1.22;88.61
54540;SHT30;40438;52.992;18.604;2023-11-19T09:26:37;1.19;88.85
54540;SHT30;40438;52.992;18.604;2023-11-19T09:29:02;1.23;88.93
54540;SHT30;40438;52.992;18.604;2023-11-19T09:31:28;1.22;88.70
54540;SHT30;40438;52.992;18.604;2023-11-19T09:33:55;1.16;88.89
54540;SHT30;40438;52.992;18.604;2023-11-19T09:36:21;1.24;88.88
54540;SHT30;40438;52.992;18.604;2023-11-19T09:38:51;1.27;88.91
54540;SHT30;40438;52.992;18.604;2023-11-19T09:41:18;1.36;88.72
54540;SHT30;40438;52.992;18.604;2023-11-19T09:43:45;1.38;88.80
54540;SHT30;40438;52.992;18.604;2023-11-19T09:46:12;1.38;88.44
54540;SHT30;40438;52.992;18.604;2023-11-19T09:48:38;1.37;88.33
54540;SHT30;40438;52.992;18.604;2023-11-19T09:51:08;1.41;88.63
54540;SHT30;40438;52.992;18.604;2023-11-19T09:53:34;1.43;88.54
54540;SHT30;40438;52.992;18.604;2023-11-19T09:56:00;1.41;88.74
54540;SHT30;40438;52.992;18.604;2023-11-19T09:58:27;1.47;88.73
54540;SHT30;40438;52.992;18.604;2023-11-19T10:00:52;1.46;88.95
54540;SHT30;40438;52.992;18.604;2023-11-19T10:03:18;1.61;88.77
54540;SHT30;40438;52.992;18.604;2023-11-19T10:05:44;1.57;88.32
54540;SHT30;40438;52.992;18.604;2023-11-19T10:08:11;1.64;88.55
54540;SHT30;40438;52.992;18.604;2023-11-19T10:10:38;1.68;88.45
54540;SHT30;40438;52.992;18.604;2023-11-19T10:13:03;1.68;87.88
54540;SHT30;40438;52.992;18.604;2023-11-19T10:15:35;1.69;87.88
54540;SHT30;40438;52.992;18.604;2023-11-19T10:18:01;1.74;87.84
54540;SHT30;40438;52.992;18.604;2023-11-19T10:20:27;1.75;87.91
54540;SHT30;40438;52.992;18.604;2023-11-19T10:22:53;1.72;88.16
54540;SHT30;40438;52.992;18.604;2023-11-19T10:25:24;1.74;87.88
54540;SHT30;40438;52.992;18.604;2023-11-19T10:27:51;1.77;87.94
54540;SHT30;40438;52.992;18.604;2023-11-19T10:30:18;1.85;87.60
54540;SHT30;40438;52.992;18.604;2023-11-19T10:32:44;1.86;87.46
54540;SHT30;40438;52.992;18.604;2023-11-19T10:35:10;1.86;87.40
54540;SHT30;40438;52.992;18.604;2023-11-19T10:37:36;1.85;87.42
54540;SHT30;40438;52.992;18.604;2023-11-19T10:40:02;1.89;87.50
54540;SHT30;40438;52.992;18.604;2023-11-19T10:42:29;1.85;87.94
54540;SHT30;40438;52.992;18.604;2023-11-19T10:44:55;1.89;87.55
54540;SHT30;40438;52.992;18.604;2023-11-19T10:47:22;1.88;87.61
54540;SHT30;40438;52.992;18.604;2023-11-19T10:49:48;1.93;87.44
54540;SHT30;40438;52.992;18.604;2023-11-19T10:52:17;1.92;87.71
54540;SHT30;40438;52.992;18.604;2023-11-19T10:54:44;1.93;88.04
54540;SHT30;40438;52.992;18.604;2023-11-19T10:57:19;1.99;87.64
54540;SHT30;40438;52.992;18.604;2023-11-19T10:59:47;1.98;87.20
54540;SHT30;40438;52.992;18.604;2023-11-19T11:02:16;1.92;88.16
54540;SHT30;40438;52.992;18.604;2023-11-19T11:04:44;1.90;88.06
54540;SHT30;40438;52.992;18.604;2023-11-19T11:07:12;1.89;88.15
54540;SHT30;40438;52.992;18.604;2023-11-19T11:09:39;1.93;88.03
54540;SHT30;40438;52.992;18.604;2023-11-19T11:12:06;1.90;88.06
54540;SHT30;40438;52.992;18.604;2023-11-19T11:14:32;1.98;87.93
54540;SHT30;40438;52.992;18.604;2023-11-19T11:17:02;1.93;88.11
54540;SHT30;40438;52.992;18.604;2023-11-19T11:19:28;1.96;87.98
54540;SHT30;40438;52.992;18.604;2023-11-19T11:21:55;1.88;88.35
54540;SHT30;40438;52.992;18.604;2023-11-19T11:27:38;1.88;88.73
54540;SHT30;40438;52.992;18.604;2023-11-19T11:30:17;1.96;88.68
54540;SHT30;40438;52.992;18.604;2023-11-19T11:32:51;1.86;88.96
54540;SHT30;40438;52.992;18.604;2023-11-19T11:35:31;1.79;89.10
54540;SHT30;40438;52.992;18.604;2023-11-19T11:38:04;1.78;89.41
54540;SHT30;40438;52.992;18.604;2023-11-19T11:40:31;1.74;89.45
54540;SHT30;40438;52.992;18.604;2023-11-19T11:42:57;1.71;89.64
54540;SHT30;40438;52.992;18.604;2023-11-19T11:45:35;1.77;89.77
54540;SHT30;40438;52.992;18.604;2023-11-19T11:48:16;1.72;89.99
54540;SHT30;40438;52.992;18.604;2023-11-19T11:50:57;1.62;90.21
54540;SHT30;40438;52.992;18.604;2023-11-19T11:53:23;1.65;90.47
54540;SHT30;40438;52.992;18.604;2023-11-19T11:55:56;1.68;90.37
54540;SHT30;40438;52.992;18.604;2023-11-19T11:58:26;1.79;90.04
54540;SHT30;40438;52.992;18.604;2023-11-19T12:00:54;1.72;90.26
54540;SHT30;40438;52.992;18.604;2023-11-19T12:03:22;1.68;90.58
54540;SHT30;40438;52.992;18.604;2023-11-19T12:05:49;1.65;90.82
54540;SHT30;40438;52.992;18.604;2023-11-19T12:08:18;1.64;90.95
54540;SHT30;40438;52.992;18.604;2023-11-19T12:10:46;1.62;91.07
54540;SHT30;40438;52.992;18.604;2023-11-19T12:13:12;1.57;91.21
54540;SHT30;40438;52.992;18.604;2023-11-19T12:16:07;1.58;91.06
54540;SHT30;40438;52.992;18.604;2023-11-19T12:18:34;1.50;91.23
54540;SHT30;40438;52.992;18.604;2023-11-19T12:21:00;1.47;91.38
54540;SHT30;40438;52.992;18.604;2023-11-19T12:23:26;1.43;91.53
54540;SHT30;40438;52.992;18.604;2023-11-19T12:25:52;1.41;91.57
54540;SHT30;40438;52.992;18.604;2023-11-19T12:28:18;1.38;91.75
54540;SHT30;40438;52.992;18.604;2023-11-19T12:30:44;1.44;91.71
54540;SHT30;40438;52.992;18.604;2023-11-19T12:33:11;1.46;91.71
54540;SHT30;40438;52.992;18.604;2023-11-19T12:35:40;1.33;91.97
54540;SHT30;40438;52.992;18.604;2023-11-19T12:38:06;1.31;91.85
54540;SHT30;40438;52.992;18.604;2023-11-19T12:40:32;1.28;92.05
54540;SHT30;40438;52.992;18.604;2023-11-19T12:42:58;1.28;92.22
54540;SHT30;40438;52.992;18.604;2023-11-19T12:45:23;1.31;92.31
54540;SHT30;40438;52.992;18.604;2023-11-19T12:47:49;1.26;92.52
54540;SHT30;40438;52.992;18.604;2023-11-19T12:50:16;1.30;92.38
54540;SHT30;40438;52.992;18.604;2023-11-19T12:52:43;1.34;92.26
54540;SHT30;40438;52.992;18.604;2023-11-19T12:55:27;1.34;92.26
54540;SHT30;40438;52.992;18.604;2023-11-19T12:57:53;1.30;92.32
54540;SHT30;40438;52.992;18.604;2023-11-19T13:00:21;1.34;92.28
54540;SHT30;40438;52.992;18.604;2023-11-19T13:02:47;1.27;92.32
54540;SHT30;40438;52.992;18.604;2023-11-19T13:05:26;1.23;92.50
54540;SHT30;40438;52.992;18.604;2023-11-19T13:08:00;1.19;92.65
54540;SHT30;40438;52.992;18.604;2023-11-19T13:10:27;1.22;92.56
54540;SHT30;40438;52.992;18.604;2023-11-19T13:13:06;1.13;92.73
54540;SHT30;40438;52.992;18.604;2023-11-19T13:15:32;1.20;92.88
54540;SHT30;40438;52.992;18.604;2023-11-19T13:17:58;1.23;92.80
54540;SHT30;40438;52.992;18.604;2023-11-19T13:20:24;1.17;92.82
54540;SHT30;40438;52.992;18.604;2023-11-19T13:22:56;1.20;92.87
54540;SHT30;40438;52.992;18.604;2023-11-19T13:25:24;1.13;93.02
54540;SHT30;40438;52.992;18.604;2023-11-19T13:27:50;1.13;93.12
54540;SHT30;40438;52.992;18.604;2023-11-19T13:30:16;1.16;93.16
54540;SHT30;40438;52.992;18.604;2023-11-19T13:32:42;1.16;93.08
54540;SHT30;40438;52.992;18.604;2023-11-19T13:35:08;1.26;92.99
54540;SHT30;40438;52.992;18.604;2023-11-19T13:37:34;1.20;93.18
54540;SHT30;40438;52.992;18.604;2023-11-19T13:40:00;1.22;93.13
54540;SHT30;40438;52.992;18.604;2023-11-19T13:42:27;1.27;93.03
54540;SHT30;40438;52.992;18.604;2023-11-19T13:44:53;1.26;92.81
54540;SHT30;40438;52.992;18.604;2023-11-19T13:47:19;1.22;92.97
54540;SHT30;40438;52.992;18.604;2023-11-19T13:49:44;1.19;92.99
54540;SHT30;40438;52.992;18.604;2023-11-19T13:52:10;1.19;93.06
54540;SHT30;40438;52.992;18.604;2023-11-19T13:54:36;1.22;93.12
54540;SHT30;40438;52.992;18.604;2023-11-19T13:57:02;1.22;93.26
54540;SHT30;40438;52.992;18.604;2023-11-19T13:59:30;1.23;93.03
54540;SHT30;40438;52.992;18.604;2023-11-19T14:01:56;1.16;93.16
54540;SHT30;40438;52.992;18.604;2023-11-19T14:04:22;1.16;93.29
54540;SHT30;40438;52.992;18.604;2023-11-19T14:06:48;1.16;93.15
54540;SHT30;40438;52.992;18.604;2023-11-19T14:09:14;1.26;93.08
54540;SHT30;40438;52.992;18.604;2023-11-19T14:11:40;1.24;92.99
54540;SHT30;40438;52.992;18.604;2023-11-19T14:14:06;1.23;93.05
54540;SHT30;40438;52.992;18.604;2023-11-19T14:16:33;1.23;93.14
54540;SHT30;40438;52.992;18.604;2023-11-19T14:18:59;1.17;93.30
54540;SHT30;40438;52.992;18.604;2023-11-19T14:21:25;1.19;93.32
54540;SHT30;40438;52.992;18.604;2023-11-19T14:23:50;1.20;93.41
54540;SHT30;40438;52.992;18.604;2023-11-19T14:26:16;1.24;93.29
54540;SHT30;40438;52.992;18.604;2023-11-19T14:28:42;1.24;93.18
54540;SHT30;40438;52.992;18.604;2023-11-19T14:31:08;1.30;93.03
54540;SHT30;40438;52.992;18.604;2023-11-19T14:33:35;1.36;92.84
54540;SHT30;40438;52.992;18.604;2023-11-19T14:36:01;1.36;92.76
54540;SHT30;40438;52.992;18.604;2023-11-19T14:38:27;1.37;92.58
54540;SHT30;40438;52.992;18.604;2023-11-19T14:40:53;1.36;92.65
54540;SHT30;40438;52.992;18.604;2023-11-19T14:43:19;1.28;92.86
54540;SHT30;40438;52.992;18.604;2023-11-19T14:45:44;1.20;93.14
54540;SHT30;40438;52.992;18.604;2023-11-19T14:48:10;1.28;93.14
54540;SHT30;40438;52.992;18.604;2023-11-19T14:50:37;1.27;93.05
54540;SHT30;40438;52.992;18.604;2023-11-19T14:53:03;1.23;93.09
54540;SHT30;40438;52.992;18.604;2023-11-19T14:55:29;1.19;93.29
54540;SHT30;40438;52.992;18.604;2023-11-19T14:57:55;1.23;93.22
54540;SHT30;40438;52.992;18.604;2023-11-19T15:00:20;1.19;93.47
54540;SHT30;40438;52.992;18.604;2023-11-19T15:02:46;1.23;93.39
54540;SHT30;40438;52.992;18.604;2023-11-19T15:05:12;1.23;93.31
54540;SHT30;40438;52.992;18.604;2023-11-19T15:07:40;1.26;93.33
54540;SHT30;40438;52.992;18.604;2023-11-19T15:10:06;1.26;93.20
54540;SHT30;40438;52.992;18.604;2023-11-19T15:12:32;1.26;93.10
54540;SHT30;40438;52.992;18.604;2023-11-19T15:14:58;1.26;93.24
54540;SHT30;40438;52.992;18.604;2023-11-19T15:17:24;1.28;93.00
54540;SHT30;40438;52.992;18.604;2023-11-19T15:19:50;1.31;93.06
54540;SHT30;40438;52.992;18.604;2023-11-19T15:22:15;1.26;93.18
54540;SHT30;40438;52.992;18.604;2023-11-19T15:24:43;1.20;93.37
54540;SHT30;40438;52.992;18.604;2023-11-19T15:27:08;1.26;93.22